Willow, Oklahoma
Current Conditions -  °F | °C
As of 7:15 PM on Saturday 25 Oct 2014 (Local Time) from KAXS Reporting Station
Clear Clear  
Wind Chill: 84°   Ceiling: Unl
Heat Index: 84°   Visibility: 10mi
Dew Point: 48°   Wind: 9mph
Humidity: 28%   Direction: 170°S
Pressure: 30.03"   Gusts: NA
Location:  35.05°N, 99.51°W
Report Text: KAXS 260015Z AUTO 17008KT 10SM CLR 29/09 A3003 RMK AO2 T02910087
Loading
Personal Weather Stations






























Interactive Weather Map
Tropical Storm Tracking
New forecast layout! Learn more

10-Day Weather Forecast

Advertisements
Track Severe Weather on mobile